Terminal Aerodrome Forecast
Issued by NWS

Home | Current Version | Previous Version | Text Only | Print | Product List | Glossary On
Versions: 1 2 3 4 5 6 7 8 9 10 11 12 13 14 15 16 17
000
FTUS46 KSTO 151738
TAFSAC
TAF
KSAC 151738Z 1518/1618 VRB02KT 4SM HZ BKN250
     FM152100 VRB04KT 6SM HZ BKN200
     FM160400 32005KT 4SM HZ BKN120
     FM161000 32014KT 2SM BR SCT250
     FM161600 33020G28KT 3SM BR SKC=

USA.gov is the U.S. government's official web portal to all federal, state and local government web resources and services.